createdAt,value
2022-07-26T00:00:47.921Z,18.66
2022-07-26T00:03:16.859Z,18.76
2022-07-26T00:05:46.080Z,18.69
2022-07-26T00:08:16.497Z,18.59
2022-07-26T00:10:48.336Z,18.59
2022-07-26T00:13:19.425Z,18.59
2022-07-26T00:15:52.207Z,18.61
2022-07-26T00:18:22.004Z,18.56
2022-07-26T00:20:51.351Z,18.52
2022-07-26T00:23:21.411Z,18.52
2022-07-26T00:25:50.574Z,18.51
2022-07-26T00:28:19.796Z,18.49
2022-07-26T00:30:50.898Z,18.49
2022-07-26T00:33:20.101Z,18.49
2022-07-26T00:35:49.439Z,18.49
2022-07-26T00:38:18.812Z,18.38
2022-07-26T00:40:47.928Z,18.42
2022-07-26T00:43:17.122Z,18.41
2022-07-26T00:45:46.630Z,18.38
2022-07-26T00:48:17.842Z,18.38
2022-07-26T00:50:50.718Z,18.30
2022-07-26T00:53:21.989Z,18.34
2022-07-26T00:55:52.298Z,18.33
2022-07-26T00:58:21.468Z,18.32
2022-07-26T01:00:50.565Z,18.31
2022-07-26T01:03:21.776Z,18.33
2022-07-26T01:05:51.235Z,18.28
2022-07-26T01:08:20.625Z,18.27
2022-07-26T01:10:49.912Z,18.27
2022-07-26T01:13:21.781Z,18.26
2022-07-26T01:15:51.875Z,18.30
2022-07-26T01:18:23.056Z,18.34
2022-07-26T01:20:54.715Z,18.35
2022-07-26T01:23:25.966Z,18.37
2022-07-26T01:25:55.778Z,18.36
2022-07-26T01:28:26.019Z,18.41
2022-07-26T01:30:55.239Z,18.41
2022-07-26T01:33:27.883Z,18.37
2022-07-26T01:35:57.291Z,18.41
2022-07-26T01:38:28.448Z,18.40
2022-07-26T01:40:57.730Z,18.43
2022-07-26T01:43:26.863Z,18.36
2022-07-26T01:45:57.526Z,18.47
2022-07-26T01:48:27.731Z,18.52
2022-07-26T01:50:57.059Z,18.52
2022-07-26T01:53:28.174Z,18.57
2022-07-26T01:55:57.439Z,18.56
2022-07-26T01:58:26.598Z,18.53
2022-07-26T02:00:55.873Z,18.63
2022-07-26T02:03:24.903Z,18.63
2022-07-26T02:05:54.113Z,18.66
2022-07-26T02:08:23.269Z,18.67
2022-07-26T02:11:03.780Z,18.70
2022-07-26T02:13:35.383Z,18.75
2022-07-26T02:16:07.790Z,18.80
2022-07-26T02:18:40.077Z,18.86
2022-07-26T02:21:09.856Z,18.95
2022-07-26T02:23:41.628Z,19.04
2022-07-26T02:26:13.629Z,19.16
2022-07-26T02:28:42.907Z,19.25
2022-07-26T02:31:15.435Z,19.31
2022-07-26T02:33:44.990Z,19.34
2022-07-26T02:36:14.164Z,19.41
2022-07-26T02:38:43.315Z,19.43
2022-07-26T02:41:14.461Z,19.45
2022-07-26T02:43:43.602Z,19.44
2022-07-26T02:46:12.876Z,19.52
2022-07-26T02:48:42.303Z,19.52
2022-07-26T02:51:11.810Z,19.48
2022-07-26T02:53:41.142Z,19.41
2022-07-26T02:56:10.929Z,19.41
2022-07-26T02:58:42.034Z,19.39
2022-07-26T03:01:11.505Z,19.51
2022-07-26T03:03:47.226Z,19.59
2022-07-26T03:06:19.869Z,19.66
2022-07-26T03:08:49.326Z,19.73
2022-07-26T03:11:18.485Z,19.89
2022-07-26T03:13:51.897Z,19.98
2022-07-26T03:16:24.783Z,20.04
2022-07-26T03:18:56.623Z,20.05
2022-07-26T03:21:25.870Z,20.10
2022-07-26T03:23:55.345Z,20.16
2022-07-26T03:26:24.940Z,20.12
2022-07-26T03:28:56.155Z,20.28
2022-07-26T03:31:25.901Z,20.39
2022-07-26T03:33:59.885Z,20.47
2022-07-26T03:36:32.358Z,20.53
2022-07-26T03:39:01.722Z,20.55
2022-07-26T03:41:31.231Z,20.66
2022-07-26T03:44:02.225Z,20.81
2022-07-26T03:46:31.666Z,20.95
2022-07-26T03:49:00.992Z,21.25
2022-07-26T03:51:30.546Z,21.72
2022-07-26T03:53:59.618Z,21.90
2022-07-26T03:56:31.390Z,22.08
2022-07-26T03:59:05.289Z,22.23
2022-07-26T04:01:35.401Z,22.25
2022-07-26T04:04:04.975Z,22.15
2022-07-26T04:06:34.177Z,22.15
2022-07-26T04:09:06.463Z,22.32
2022-07-26T04:11:37.427Z,22.52
2022-07-26T04:14:08.998Z,22.63
2022-07-26T04:16:43.286Z,22.61
2022-07-26T04:19:13.248Z,22.63
2022-07-26T04:21:42.975Z,22.72
2022-07-26T04:24:12.527Z,22.81
2022-07-26T04:26:41.738Z,22.96
2022-07-26T04:29:14.738Z,23.04
2022-07-26T04:31:44.153Z,23.03
2022-07-26T04:34:13.258Z,22.90
2022-07-26T04:36:42.451Z,22.78
2022-07-26T04:39:11.881Z,22.82
2022-07-26T04:41:41.109Z,23.01
2022-07-26T04:44:10.718Z,23.21
2022-07-26T04:46:44.950Z,23.42
2022-07-26T04:49:15.558Z,23.44
2022-07-26T04:51:44.963Z,23.50
2022-07-26T04:54:15.275Z,23.48
2022-07-26T04:56:45.692Z,23.52
2022-07-26T04:59:19.792Z,23.69
2022-07-26T05:01:53.013Z,23.78
2022-07-26T05:04:21.921Z,23.84
2022-07-26T05:06:51.082Z,23.64
2022-07-26T05:09:20.419Z,23.66
2022-07-26T05:11:50.923Z,23.77
2022-07-26T05:14:20.273Z,23.95
2022-07-26T05:16:53.623Z,23.98
2022-07-26T05:19:25.125Z,23.98
2022-07-26T05:21:54.437Z,23.89
2022-07-26T05:24:23.602Z,23.79
2022-07-26T05:26:58.268Z,23.74
2022-07-26T05:29:28.375Z,23.67
2022-07-26T05:31:59.429Z,23.60
2022-07-26T05:34:28.835Z,23.62
2022-07-26T05:36:57.988Z,23.62
2022-07-26T05:39:27.261Z,23.61
2022-07-26T05:41:56.419Z,23.60
2022-07-26T05:44:26.522Z,23.55
2022-07-26T05:46:55.871Z,23.52
2022-07-26T05:49:27.113Z,23.49
2022-07-26T05:52:09.971Z,23.54
2022-07-26T05:54:39.135Z,23.61
2022-07-26T05:57:08.407Z,23.66
2022-07-26T05:59:37.626Z,23.72
2022-07-26T06:02:08.028Z,23.70
2022-07-26T06:04:39.941Z,23.91
2022-07-26T06:07:09.490Z,23.82
2022-07-26T06:09:38.657Z,23.79
2022-07-26T06:12:08.781Z,23.83
2022-07-26T06:14:39.553Z,23.78
2022-07-26T06:17:08.859Z,23.92
2022-07-26T06:19:44.287Z,24.05
2022-07-26T06:22:16.638Z,24.17
2022-07-26T06:24:45.796Z,24.21
2022-07-26T06:27:15.120Z,24.20
2022-07-26T06:29:47.978Z,24.20
2022-07-26T06:32:17.572Z,24.07
2022-07-26T06:34:48.708Z,24.26
2022-07-26T06:37:18.109Z,24.29
2022-07-26T06:39:47.195Z,24.31
2022-07-26T06:42:16.474Z,24.38
2022-07-26T06:44:45.566Z,24.50
2022-07-26T06:47:14.893Z,24.45
2022-07-26T06:49:44.395Z,24.44
2022-07-26T06:52:15.638Z,24.60
2022-07-26T06:54:45.357Z,24.59
2022-07-26T06:57:14.831Z,24.71
2022-07-26T06:59:46.427Z,24.78
2022-07-26T07:02:16.028Z,24.74
2022-07-26T07:04:45.513Z,24.73
2022-07-26T07:07:16.812Z,24.77
2022-07-26T07:09:46.128Z,24.80
2022-07-26T07:12:15.397Z,24.80
2022-07-26T07:14:44.756Z,24.85
2022-07-26T07:17:19.932Z,24.83
2022-07-26T07:19:49.793Z,24.86
2022-07-26T07:22:21.048Z,24.95
2022-07-26T07:24:50.083Z,25.14
2022-07-26T07:27:27.324Z,25.15
2022-07-26T07:29:56.742Z,25.15
2022-07-26T07:32:26.852Z,25.15
2022-07-26T07:34:57.788Z,25.29
2022-07-26T07:37:28.923Z,25.38
2022-07-26T07:40:18.207Z,25.38
2022-07-26T07:42:47.345Z,25.57
2022-07-26T07:45:16.898Z,25.56
2022-07-26T07:47:46.514Z,25.57
2022-07-26T07:50:15.863Z,25.55
2022-07-26T07:52:49.471Z,25.58
2022-07-26T07:55:36.355Z,25.65
2022-07-26T07:58:09.244Z,25.64
2022-07-26T08:00:39.147Z,25.64
2022-07-26T08:03:08.578Z,25.71
2022-07-26T08:05:40.438Z,25.76
2022-07-26T08:08:11.949Z,25.85
2022-07-26T08:10:51.701Z,25.88
2022-07-26T08:13:22.257Z,25.89
2022-07-26T08:15:52.168Z,25.97
2022-07-26T08:18:22.746Z,26.08
2022-07-26T08:20:53.007Z,26.22
2022-07-26T08:23:24.705Z,26.25
2022-07-26T08:25:59.791Z,26.31
2022-07-26T08:28:48.613Z,26.44
2022-07-26T08:31:21.801Z,26.50
2022-07-26T08:33:51.227Z,26.60
2022-07-26T08:36:22.971Z,26.68
2022-07-26T08:38:54.377Z,26.75
2022-07-26T08:41:23.276Z,26.95
2022-07-26T08:43:53.882Z,26.76
2022-07-26T08:46:27.052Z,26.75
2022-07-26T08:48:57.397Z,26.80
2022-07-26T08:51:27.931Z,26.83
2022-07-26T08:54:05.672Z,26.98
2022-07-26T08:56:37.437Z,27.14
2022-07-26T08:59:07.857Z,27.33
2022-07-26T09:01:37.209Z,27.46
2022-07-26T09:04:31.751Z,27.52
2022-07-26T09:07:07.577Z,27.54
2022-07-26T09:09:41.372Z,27.53
2022-07-26T09:12:18.709Z,27.49
2022-07-26T09:14:50.603Z,27.45
2022-07-26T09:20:09.186Z,27.47
2022-07-26T09:22:38.973Z,27.46
2022-07-26T09:25:23.705Z,27.78
2022-07-26T09:27:53.709Z,28.02
2022-07-26T09:30:23.587Z,28.22
2022-07-26T09:33:02.164Z,28.09
2022-07-26T09:35:51.146Z,28.05
2022-07-26T09:38:21.911Z,28.18
2022-07-26T09:40:55.011Z,28.37
2022-07-26T09:43:24.912Z,28.58
2022-07-26T09:46:10.436Z,29.06
2022-07-26T09:49:08.215Z,29.45
2022-07-26T09:51:41.651Z,29.64
2022-07-26T09:54:12.318Z,29.60
2022-07-26T09:56:52.670Z,29.74
2022-07-26T09:59:24.196Z,29.51
2022-07-26T10:01:56.976Z,29.25
2022-07-26T10:04:27.387Z,28.99
2022-07-26T10:06:57.739Z,28.83
2022-07-26T10:09:27.953Z,28.71
2022-07-26T10:12:03.854Z,28.75
2022-07-26T10:14:45.405Z,28.71
2022-07-26T10:17:46.876Z,28.75
2022-07-26T10:20:40.963Z,28.96
2022-07-26T10:23:39.067Z,29.04
2022-07-26T10:26:10.877Z,28.96
2022-07-26T10:28:43.623Z,29.09
2022-07-26T10:31:34.335Z,29.32
2022-07-26T10:34:04.342Z,29.22
2022-07-26T10:36:36.997Z,29.18
2022-07-26T10:39:13.241Z,29.20
2022-07-26T10:41:45.361Z,29.28
2022-07-26T10:44:25.137Z,29.38
2022-07-26T10:47:15.403Z,29.31
2022-07-26T10:49:55.100Z,29.19
2022-07-26T10:52:27.580Z,29.31
2022-07-26T10:55:18.861Z,29.63
2022-07-26T10:57:50.050Z,29.73
2022-07-26T11:00:24.791Z,29.65
2022-07-26T11:02:59.953Z,29.60
2022-07-26T11:05:34.507Z,29.71
2022-07-26T11:08:08.745Z,29.74
2022-07-26T11:10:40.713Z,30.03
2022-07-26T11:13:12.791Z,30.26
2022-07-26T11:15:46.640Z,30.46
2022-07-26T11:18:23.855Z,30.45
2022-07-26T11:20:58.391Z,30.57
2022-07-26T11:23:31.675Z,30.54
2022-07-26T11:26:19.914Z,30.75
2022-07-26T11:29:06.128Z,30.79
2022-07-26T11:31:49.327Z,30.89
2022-07-26T11:34:23.744Z,31.04
2022-07-26T11:36:55.116Z,31.07
2022-07-26T11:39:27.181Z,30.99
2022-07-26T11:41:59.965Z,31.00
2022-07-26T11:44:30.507Z,31.00
2022-07-26T11:47:02.558Z,31.09
2022-07-26T11:50:00.144Z,31.02
2022-07-26T11:52:25.525Z,30.85
2022-07-26T11:54:56.339Z,30.44
2022-07-26T11:57:31.087Z,30.42
2022-07-26T12:00:01.691Z,30.22
2022-07-26T12:02:42.695Z,30.12
2022-07-26T12:05:16.595Z,30.01
2022-07-26T12:08:00.888Z,30.04
2022-07-26T12:10:30.635Z,29.97
2022-07-26T12:13:10.849Z,30.12
2022-07-26T12:15:48.106Z,30.31
2022-07-26T12:18:27.570Z,30.52
2022-07-26T12:21:06.550Z,30.43
2022-07-26T12:23:44.341Z,30.35
2022-07-26T12:26:26.333Z,30.43
2022-07-26T12:28:56.772Z,30.45
2022-07-26T12:31:31.667Z,30.56
2022-07-26T12:34:03.195Z,30.70
2022-07-26T12:36:35.766Z,30.87
2022-07-26T12:39:05.226Z,31.24
2022-07-26T12:41:35.972Z,31.77
2022-07-26T12:44:05.988Z,32.04
2022-07-26T12:46:35.861Z,32.24
2022-07-26T12:49:07.361Z,32.10
2022-07-26T12:57:47.944Z,32.11
2022-07-26T13:00:19.267Z,32.14
2022-07-26T13:02:48.578Z,31.98
2022-07-26T13:05:18.026Z,31.58
2022-07-26T13:07:47.352Z,31.34
2022-07-26T13:10:34.198Z,31.30
2022-07-26T13:13:08.338Z,31.00
2022-07-26T13:15:38.115Z,30.64
2022-07-26T13:18:09.003Z,30.25
2022-07-26T13:20:39.179Z,30.21
2022-07-26T13:23:11.409Z,30.35
2022-07-26T13:25:41.338Z,29.79
2022-07-26T13:28:15.346Z,29.49
2022-07-26T13:30:44.762Z,28.93
2022-07-26T13:33:16.205Z,28.77
2022-07-26T13:35:45.469Z,28.45
2022-07-26T13:38:19.852Z,28.00
2022-07-26T13:40:50.302Z,27.78
2022-07-26T13:43:22.558Z,27.69
2022-07-26T13:45:51.958Z,27.48
2022-07-26T13:48:21.462Z,27.29
2022-07-26T13:50:50.829Z,27.26
2022-07-26T13:53:20.041Z,27.20
2022-07-26T13:55:49.158Z,27.29
2022-07-26T13:58:21.062Z,27.27
2022-07-26T14:00:52.536Z,27.16
2022-07-26T14:03:21.920Z,27.12
2022-07-26T14:05:51.243Z,27.06
2022-07-26T14:08:20.652Z,26.97
2022-07-26T14:10:50.023Z,26.90
2022-07-26T14:13:19.319Z,27.06
2022-07-26T14:15:48.767Z,27.05
2022-07-26T14:18:20.107Z,27.11
2022-07-26T14:20:49.038Z,27.20
2022-07-26T14:23:18.281Z,27.13
2022-07-26T14:25:47.530Z,27.04
2022-07-26T14:28:16.647Z,27.11
2022-07-26T14:30:46.168Z,27.00
2022-07-26T14:33:15.473Z,26.88
2022-07-26T14:35:47.031Z,26.94
2022-07-26T14:38:23.343Z,26.80
2022-07-26T14:40:55.009Z,26.86
2022-07-26T14:43:24.180Z,26.97
2022-07-26T14:45:54.495Z,27.02
2022-07-26T14:48:51.858Z,27.08
2022-07-26T14:51:14.992Z,27.11
2022-07-26T14:53:44.110Z,27.30
2022-07-26T14:56:13.754Z,27.08
2022-07-26T14:58:43.216Z,26.99
2022-07-26T15:01:13.015Z,26.83
2022-07-26T15:03:42.706Z,26.81
2022-07-26T15:06:11.981Z,26.70
2022-07-26T15:08:43.163Z,26.66
2022-07-26T15:11:12.108Z,26.73
2022-07-26T15:13:41.204Z,26.63
2022-07-26T15:16:10.648Z,26.50
2022-07-26T15:18:39.923Z,26.50
2022-07-26T15:21:09.903Z,26.50
2022-07-26T15:23:39.650Z,26.46
2022-07-26T15:26:11.494Z,26.63
2022-07-26T15:28:40.880Z,26.71
2022-07-26T15:31:12.214Z,26.67
2022-07-26T15:33:41.443Z,26.77
2022-07-26T15:36:11.188Z,26.85
2022-07-26T15:38:44.776Z,26.88
2022-07-26T15:41:16.211Z,26.83
2022-07-26T15:43:49.001Z,26.82
2022-07-26T15:46:19.215Z,26.84
2022-07-26T15:48:49.424Z,26.92
2022-07-26T15:51:19.047Z,27.03
2022-07-26T15:53:48.468Z,27.23
2022-07-26T15:56:19.996Z,27.41
2022-07-26T15:58:49.343Z,27.35
2022-07-26T16:01:19.584Z,27.26
2022-07-26T16:03:50.205Z,27.25
2022-07-26T16:06:19.712Z,27.24
2022-07-26T16:09:14.037Z,27.26
2022-07-26T16:11:40.718Z,27.21
2022-07-26T16:14:09.993Z,27.21
2022-07-26T16:16:39.152Z,27.08
2022-07-26T16:19:09.130Z,27.13
2022-07-26T16:21:39.949Z,27.05
2022-07-26T16:24:12.215Z,26.85
2022-07-26T16:26:43.562Z,26.80
2022-07-26T16:29:12.837Z,26.83
2022-07-26T16:31:45.396Z,26.38
2022-07-26T16:34:18.327Z,26.15
2022-07-26T16:36:59.649Z,25.63
2022-07-26T16:39:29.675Z,25.86
2022-07-26T16:42:06.636Z,26.10
2022-07-26T16:44:37.907Z,26.10
2022-07-26T16:47:07.282Z,26.00
2022-07-26T16:49:36.447Z,25.96
2022-07-26T16:52:07.965Z,26.10
2022-07-26T16:54:37.292Z,26.14
2022-07-26T16:57:08.481Z,26.15
2022-07-26T16:59:37.651Z,26.09
2022-07-26T17:02:08.544Z,26.04
2022-07-26T17:04:37.740Z,25.94
2022-07-26T17:09:57.167Z,25.92
2022-07-26T17:12:28.630Z,25.89
2022-07-26T17:14:58.130Z,25.87
2022-07-26T17:17:27.864Z,25.84
2022-07-26T17:19:57.141Z,25.75
2022-07-26T17:22:26.602Z,25.59
2022-07-26T17:24:55.841Z,25.47
2022-07-26T17:27:25.348Z,25.42
2022-07-26T17:29:59.858Z,25.34
2022-07-26T17:32:33.019Z,25.28
2022-07-26T17:35:03.862Z,25.21
2022-07-26T17:37:34.534Z,25.19
2022-07-26T17:40:04.564Z,25.15
2022-07-26T17:42:36.986Z,25.06
2022-07-26T17:45:09.884Z,25.01
2022-07-26T17:47:39.254Z,24.98
2022-07-26T17:52:59.851Z,24.91
2022-07-26T17:55:29.188Z,24.84
2022-07-26T17:57:58.497Z,24.77
2022-07-26T18:00:29.727Z,24.72
2022-07-26T18:02:59.697Z,24.77
2022-07-26T18:05:34.881Z,24.70
2022-07-26T18:08:06.564Z,24.74
2022-07-26T18:10:35.772Z,24.64
2022-07-26T18:13:04.931Z,24.55
2022-07-26T18:15:36.229Z,24.52
2022-07-26T18:18:07.325Z,24.52
2022-07-26T18:20:36.574Z,24.45
2022-07-26T18:23:07.127Z,24.43
2022-07-26T18:25:36.712Z,24.46
2022-07-26T18:28:07.245Z,24.43
2022-07-26T18:30:39.457Z,24.45
2022-07-26T18:33:11.501Z,24.34
2022-07-26T18:35:41.046Z,24.28
2022-07-26T18:38:10.574Z,24.30
2022-07-26T18:40:40.018Z,24.32
2022-07-26T18:43:09.311Z,24.27
2022-07-26T18:45:40.588Z,24.25
2022-07-26T18:48:10.139Z,24.25
2022-07-26T18:50:40.592Z,24.23
2022-07-26T18:53:13.006Z,24.21
2022-07-26T18:55:44.466Z,24.20
2022-07-26T18:58:15.591Z,24.03
2022-07-26T19:00:47.469Z,24.17
2022-07-26T19:03:17.321Z,24.07
2022-07-26T19:05:46.549Z,24.04
2022-07-26T19:08:16.030Z,24.03
2022-07-26T19:10:46.066Z,23.98
2022-07-26T19:13:15.482Z,23.92
2022-07-26T19:15:46.612Z,23.91
2022-07-26T19:18:16.126Z,23.84
2022-07-26T19:20:45.659Z,23.89
2022-07-26T19:23:14.989Z,23.94
2022-07-26T19:25:44.423Z,23.92
2022-07-26T19:28:15.234Z,23.89
2022-07-26T19:30:46.881Z,23.91
2022-07-26T19:33:16.896Z,23.86
2022-07-26T19:35:46.237Z,23.85
2022-07-26T19:38:16.425Z,23.79
2022-07-26T19:40:46.037Z,23.81
2022-07-26T19:43:15.313Z,23.77
2022-07-26T19:45:46.716Z,23.74
2022-07-26T19:48:16.489Z,23.67
2022-07-26T19:50:45.738Z,23.70
2022-07-26T19:53:17.909Z,23.67
2022-07-26T19:55:47.404Z,23.65
2022-07-26T19:58:16.718Z,23.60
2022-07-26T20:00:48.111Z,23.54
2022-07-26T20:03:17.033Z,23.57
2022-07-26T20:05:46.221Z,23.47
2022-07-26T20:08:15.551Z,23.45
2022-07-26T20:10:44.769Z,23.37
2022-07-26T20:13:14.072Z,23.32
2022-07-26T20:15:43.373Z,23.34
2022-07-26T20:18:14.671Z,23.32
2022-07-26T20:20:44.480Z,23.30
2022-07-26T20:23:13.642Z,23.23
2022-07-26T20:25:42.838Z,23.13
2022-07-26T20:28:14.753Z,23.07
2022-07-26T20:30:47.758Z,23.15
2022-07-26T20:33:19.146Z,23.07
2022-07-26T20:35:52.964Z,23.23
2022-07-26T20:38:24.718Z,23.17
2022-07-26T20:40:54.004Z,23.19
2022-07-26T20:43:23.281Z,23.18
2022-07-26T20:45:56.515Z,23.23
2022-07-26T20:48:27.948Z,23.22
2022-07-26T20:50:57.444Z,23.15
2022-07-26T20:53:26.529Z,23.06
2022-07-26T20:55:55.811Z,23.04
2022-07-26T20:58:25.249Z,23.02
2022-07-26T21:00:54.533Z,23.04
2022-07-26T21:03:24.102Z,23.00
2022-07-26T21:05:55.404Z,22.94
2022-07-26T21:08:24.834Z,22.90
2022-07-26T21:10:53.972Z,22.88
2022-07-26T21:13:24.349Z,22.95
2022-07-26T21:15:53.903Z,22.98
2022-07-26T21:18:23.324Z,22.91
2022-07-26T21:20:54.453Z,22.86
2022-07-26T21:23:23.661Z,22.78
2022-07-26T21:28:30.922Z,22.68
2022-07-26T21:31:00.087Z,22.65
2022-07-26T21:33:29.403Z,22.65
2022-07-26T21:36:00.546Z,22.62
2022-07-26T21:38:31.543Z,22.58
2022-07-26T21:41:01.007Z,22.57
2022-07-26T21:43:30.252Z,22.53
2022-07-26T21:45:59.635Z,22.42
2022-07-26T21:48:29.100Z,22.38
2022-07-26T21:51:00.318Z,22.32
2022-07-26T21:53:29.587Z,22.32
2022-07-26T21:55:58.975Z,22.32
2022-07-26T21:58:28.435Z,22.26
2022-07-26T22:01:03.066Z,22.16
2022-07-26T22:03:38.092Z,22.13
2022-07-26T22:06:09.697Z,22.20
2022-07-26T22:08:38.937Z,22.03
2022-07-26T22:11:08.078Z,21.89
2022-07-26T22:13:37.910Z,21.84
2022-07-26T22:16:08.579Z,21.77
2022-07-26T22:18:40.202Z,21.69
2022-07-26T22:21:11.051Z,21.74
2022-07-26T22:23:40.340Z,21.57
2022-07-26T22:26:09.462Z,21.42
2022-07-26T22:28:38.921Z,21.42
2022-07-26T22:31:08.573Z,21.34
2022-07-26T22:33:39.150Z,21.18
2022-07-26T22:36:13.799Z,21.28
2022-07-26T22:38:44.144Z,21.35
2022-07-26T22:41:13.604Z,21.47
2022-07-26T22:43:44.463Z,21.62
2022-07-26T22:46:14.188Z,21.70
2022-07-26T22:48:47.969Z,21.70
2022-07-26T22:51:20.584Z,21.66
2022-07-26T22:53:49.736Z,21.65
2022-07-26T22:56:19.761Z,21.58
2022-07-26T22:58:49.459Z,21.47
2022-07-26T23:01:18.596Z,21.58
2022-07-26T23:03:49.783Z,21.59
2022-07-26T23:06:32.016Z,21.66
2022-07-26T23:09:01.375Z,21.74
2022-07-26T23:11:32.393Z,21.58
2022-07-26T23:14:01.816Z,21.53
2022-07-26T23:16:31.105Z,21.40
2022-07-26T23:19:00.968Z,21.37
2022-07-26T23:21:31.944Z,21.44
2022-07-26T23:24:01.082Z,21.43
2022-07-26T23:26:30.365Z,21.35
2022-07-26T23:29:00.565Z,21.40
2022-07-26T23:31:30.365Z,21.44
2022-07-26T23:33:59.557Z,21.40
2022-07-26T23:36:32.194Z,21.32
2022-07-26T23:39:02.156Z,21.36
2022-07-26T23:41:31.596Z,21.35
2022-07-26T23:44:00.784Z,21.29
2022-07-26T23:46:30.059Z,21.24
2022-07-26T23:49:00.172Z,21.25
2022-07-26T23:51:31.393Z,21.27
2022-07-26T23:54:00.685Z,21.21
2022-07-26T23:56:29.803Z,21.10
2022-07-26T23:58:59.011Z,21.04
